ADDS METAR Data INFO
IDs: Format: Raw Decoded Include TAF

Data at: 1810 UTC 18 Feb 2018

METAR for:KORL (Orlando/Executive, FL, US)
Text:KORL 181753Z 34004KT 10SM CLR 27/16 A3023 RMK AO2 SLP239 T02670156 10272 20156 58011
Temperature: 26.7°C ( 80°F)
Dewpoint: 15.6°C ( 60°F) [RH = 51%]
Pressure (altimeter):30.23 inches Hg (1023.8 mb) [Sea level pressure: 1023.9 mb]
Winds:from the NNW (340 degrees) at 5 MPH (4 knots; 2.1 m/s)
Visibility:10 or more sm (16+ km)
Ceiling:at least 12,000 feet AGL
Clouds:sky clear below 12,000 feet AGL